Time;durP1;ratioP1;P1;durP2;ratioP2;P2;SDS_P1;SDS_P2;PMS_P1;PMS_P2;Temp;Humidity;BMP_temperature;BMP_pressure;BME280_temperature;BME280_humidity;BME280_pressure;Samples;Min_cycle;Max_cycle;Signal;HPM_P1;HPM_P2
2022/12/23 00:04:17;;;;;;;9.15;2.72;;;;;;;8.69;73.25;98730.06;10384885;28;20046;-62
2022/12/23 00:09:19;;;;;;;7.50;2.20;;;;;;;8.69;73.17;98730.06;10388622;28;20065;-62
2022/12/23 00:15:05;;;;;;;7.85;2.25;;;;;;;8.74;73.17;98728.00;10383625;28;20058;-62
2022/12/23 00:19:47;;;;;;;8.68;1.90;;;;;;;8.72;73.10;98728.09;10386511;28;20054;-62
2022/12/23 00:24:50;;;;;;;9.65;1.90;;;;;;;8.77;73.09;98743.44;10382022;28;20053;-62
2022/12/23 00:29:52;;;;;;;5.97;1.80;;;;;;;8.80;73.03;98753.63;10387569;28;20060;-62
2022/12/23 00:34:53;;;;;;;5.68;2.35;;;;;;;8.76;73.15;98749.56;10385510;28;20527;-62
2022/12/23 00:45:16;;;;;;;6.13;2.00;;;;;;;8.73;73.29;98752.38;10381253;28;20046;-62
2022/12/23 00:50:17;;;;;;;5.68;1.60;;;;;;;8.61;73.80;98754.09;10387829;28;20056;-62
2022/12/23 00:55:19;;;;;;;6.45;1.80;;;;;;;8.65;73.61;98757.31;10383339;28;20145;-62
2022/12/23 01:05:35;;;;;;;5.40;1.60;;;;;;;8.61;73.69;98750.63;10384663;28;20061;-63
2022/12/23 01:05:46;;;;;;;8.50;1.80;;;;;;;8.68;73.67;98765.75;10378983;28;20041;-62
2022/12/23 01:10:48;;;;;;;4.30;1.60;;;;;;;8.69;73.74;98770.00;10386691;28;20045;-62
2022/12/23 01:15:49;;;;;;;5.80;1.50;;;;;;;8.68;73.85;98776.19;10383666;28;20046;-62
2022/12/23 01:20:51;;;;;;;5.72;1.60;;;;;;;8.68;73.83;98785.78;10381677;28;20050;-62
2022/12/23 01:26:01;;;;;;;3.80;1.50;;;;;;;8.74;73.76;98798.38;10386358;28;20546;-62
2022/12/23 01:31:04;;;;;;;4.50;1.60;;;;;;;8.79;73.75;98811.94;10387127;28;20088;-62
2022/12/23 01:36:08;;;;;;;4.05;1.38;;;;;;;8.75;73.77;98824.31;10381941;28;20228;-62
2022/12/23 01:46:44;;;;;;;2.67;1.42;;;;;;;8.68;74.04;98827.47;10384119;28;20524;-62
2022/12/23 01:51:45;;;;;;;4.90;1.40;;;;;;;8.87;73.49;98835.69;10379873;28;20493;-62
2022/12/23 01:56:47;;;;;;;5.18;1.40;;;;;;;8.98;73.21;98848.78;10385725;28;20525;-61
2022/12/23 02:12:59;;;;;;;4.85;1.30;;;;;;;8.87;73.20;98869.59;10383337;28;20045;-62
2022/12/23 02:18:38;;;;;;;3.90;1.60;;;;;;;8.84;73.33;98868.00;10383663;28;20136;-62
2022/12/23 02:23:49;;;;;;;4.35;1.77;;;;;;;8.86;73.17;98880.94;10383813;28;20063;-62
2022/12/23 02:29:05;;;;;;;4.35;1.55;;;;;;;8.83;73.34;98878.56;10384459;28;20060;-62
2022/12/23 02:34:19;;;;;;;3.33;1.33;;;;;;;8.79;73.47;98882.31;10376747;28;20045;-62
2022/12/23 02:39:37;;;;;;;3.33;1.30;;;;;;;8.84;73.47;98885.44;10380475;28;20077;-61
2022/12/23 02:44:52;;;;;;;3.50;1.40;;;;;;;8.88;73.55;98873.00;10381475;28;20050;-62
2022/12/23 02:49:57;;;;;;;3.72;1.40;;;;;;;9.05;73.07;98875.28;10380282;28;20405;-61
2022/12/23 02:55:05;;;;;;;4.80;1.30;;;;;;;9.15;72.75;98871.91;10381024;28;20045;-62
2022/12/23 03:00:09;;;;;;;2.33;1.30;;;;;;;9.15;72.67;98879.75;10381439;28;20144;-62
2022/12/23 03:05:22;;;;;;;3.25;1.10;;;;;;;9.09;72.63;98887.16;10385921;28;20565;-61
2022/12/23 03:10:47;;;;;;;3.38;1.13;;;;;;;9.08;72.53;98883.72;10389411;28;20056;-61
2022/12/23 03:16:16;;;;;;;2.65;1.25;;;;;;;9.03;72.53;98875.41;10384805;28;20050;-61
2022/12/23 03:21:28;;;;;;;2.88;1.15;;;;;;;9.04;72.53;98878.81;10385909;28;20520;-61
2022/12/23 03:26:38;;;;;;;2.58;1.13;;;;;;;9.08;72.23;98885.47;10383708;28;20045;-62
2022/12/23 03:31:42;;;;;;;1.83;1.00;;;;;;;9.15;72.16;98889.34;10387809;28;20057;-61
2022/12/23 03:36:57;;;;;;;3.95;1.10;;;;;;;9.11;71.74;98912.22;10386415;28;20099;-61
2022/12/23 03:42:18;;;;;;;2.70;1.10;;;;;;;8.82;72.47;98913.38;10386835;28;20049;-62
2022/12/23 03:47:23;;;;;;;2.05;1.00;;;;;;;8.61;72.99;98900.03;10390186;28;20064;-61
2022/12/23 03:52:34;;;;;;;1.48;1.00;;;;;;;8.45;73.12;98909.81;10390189;28;20052;-61
2022/12/23 03:57:43;;;;;;;1.30;0.90;;;;;;;8.31;73.62;98915.13;10386141;28;20053;-62
2022/12/23 04:03:09;;;;;;;2.63;1.08;;;;;;;8.15;73.83;98932.69;10387131;28;20519;-61
2022/12/23 04:08:26;;;;;;;1.95;0.90;;;;;;;8.09;74.49;98932.22;10384046;28;20052;-62
2022/12/23 04:13:29;;;;;;;0.95;0.90;;;;;;;8.07;74.54;98927.13;10382095;28;20612;-61
2022/12/23 04:18:30;;;;;;;3.65;1.13;;;;;;;8.06;74.48;98922.03;10383052;28;20049;-62
2022/12/23 04:23:32;;;;;;;1.77;1.10;;;;;;;8.03;74.51;98933.47;10382893;28;20126;-61
2022/12/23 04:28:34;;;;;;;0.77;0.77;;;;;;;8.10;74.62;98926.09;10387444;28;20468;-61
2022/12/23 04:33:35;;;;;;;2.53;0.80;;;;;;;8.30;74.52;98931.72;10389675;28;20053;-61
2022/12/23 04:38:37;;;;;;;2.83;0.90;;;;;;;8.52;73.92;98941.53;10389148;28;20053;-61
2022/12/23 04:43:38;;;;;;;4.15;0.95;;;;;;;8.52;74.07;98944.97;10389169;28;20062;-61
2022/12/23 04:48:40;;;;;;;1.58;0.90;;;;;;;8.54;74.15;98942.25;10387366;28;20505;-61
2022/12/23 04:53:42;;;;;;;1.08;0.82;;;;;;;8.55;74.08;98942.16;10389751;28;20237;-61
2022/12/23 04:58:43;;;;;;;3.42;1.00;;;;;;;8.61;73.85;98936.50;10389203;28;20511;-62
2022/12/23 05:03:45;;;;;;;2.05;1.00;;;;;;;8.61;73.43;98925.25;10388755;28;20053;-61
2022/12/23 05:08:47;;;;;;;1.98;0.80;;;;;;;8.55;73.43;98942.16;10384448;28;20057;-62
2022/12/23 05:13:48;;;;;;;1.63;0.95;;;;;;;8.44;73.75;98946.41;10389252;28;20045;-62
2022/12/23 05:18:50;;;;;;;3.00;1.02;;;;;;;8.37;73.97;98956.41;10389026;28;20155;-61
2022/12/23 05:23:52;;;;;;;2.55;1.10;;;;;;;8.45;73.91;98964.53;10389032;28;20061;-62
2022/12/23 05:28:54;;;;;;;3.17;1.27;;;;;;;8.62;73.40;98943.41;10386464;28;20049;-63
2022/12/23 05:33:56;;;;;;;3.83;1.40;;;;;;;8.72;73.03;98949.69;10388923;28;20059;-62
2022/12/23 05:39:06;;;;;;;4.90;1.50;;;;;;;8.60;73.05;98958.31;10386990;28;20053;-62
2022/12/23 05:44:07;;;;;;;2.88;1.10;;;;;;;8.63;72.91;98959.88;10386275;28;20049;-63
2022/12/23 05:49:09;;;;;;;3.40;1.13;;;;;;;8.69;73.10;98975.09;10388205;28;20037;-62
2022/12/23 05:54:11;;;;;;;2.55;1.10;;;;;;;8.75;72.80;98974.72;10386475;28;20053;-62
2022/12/23 05:59:12;;;;;;;3.47;1.38;;;;;;;8.86;72.54;98969.59;10386711;28;20069;-60
2022/12/23 06:04:14;;;;;;;2.25;1.10;;;;;;;8.95;72.28;98976.78;10386317;28;20528;-61
2022/12/23 06:09:15;;;;;;;1.95;1.20;;;;;;;9.07;72.18;98978.56;10386603;28;20049;-61
2022/12/23 06:14:17;;;;;;;2.58;1.20;;;;;;;9.15;71.81;98991.91;10386458;28;20140;-60
2022/12/23 06:19:25;;;;;;;3.10;1.13;;;;;;;9.12;71.74;99001.69;10386460;28;20610;-61
2022/12/23 06:24:27;;;;;;;2.15;1.00;;;;;;;9.18;71.68;99014.34;10376940;28;20049;-61
2022/12/23 06:29:28;;;;;;;1.60;1.00;;;;;;;9.22;71.73;99026.25;10385992;28;20482;-60
2022/12/23 06:34:30;;;;;;;6.03;1.40;;;;;;;9.27;71.42;99024.13;10383814;28;20409;-63
2022/12/23 06:39:32;;;;;;;2.30;1.10;;;;;;;9.34;71.16;99021.00;10382763;28;20348;-62
2022/12/23 06:44:34;;;;;;;5.10;2.28;;;;;;;9.40;70.64;99023.19;10385665;28;20540;-62
2022/12/23 06:49:35;;;;;;;1.95;1.30;;;;;;;9.45;70.93;99022.88;10383837;28;20639;-62
2022/12/23 06:54:37;;;;;;;3.25;1.20;;;;;;;9.45;70.69;99017.66;10383099;28;20045;-63
2022/12/23 06:59:39;;;;;;;2.78;1.30;;;;;;;9.43;70.88;99009.94;10384502;28;20185;-62
2022/12/23 07:04:40;;;;;;;3.80;1.80;;;;;;;9.47;70.64;98998.34;10384762;28;20048;-62
2022/12/23 07:09:42;;;;;;;6.18;2.90;;;;;;;9.39;70.64;99005.88;10384132;28;20064;-62
2022/12/23 07:14:44;;;;;;;8.02;5.50;;;;;;;9.30;70.57;99014.31;10383742;28;20124;-62
2022/12/23 07:19:45;;;;;;;4.50;1.58;;;;;;;9.26;70.70;99012.06;10383707;28;20056;-62
2022/12/23 07:24:47;;;;;;;3.42;1.40;;;;;;;9.20;70.60;99012.47;10381974;28;20104;-63
2022/12/23 07:29:49;;;;;;;2.10;1.40;;;;;;;9.08;70.78;99024.56;10382242;28;20037;-62
2022/12/23 07:34:50;;;;;;;3.13;1.80;;;;;;;8.90;70.62;99038.84;10381872;28;20061;-63
2022/12/23 07:39:52;;;;;;;6.68;3.15;;;;;;;8.79;70.78;99055.19;10382260;28;20045;-62
2022/12/23 07:44:54;;;;;;;5.32;2.20;;;;;;;8.69;70.83;99061.09;10383508;28;20049;-62
2022/12/23 07:49:55;;;;;;;3.00;1.27;;;;;;;8.63;71.07;99056.28;10368154;28;20057;-63
2022/12/23 07:54:57;;;;;;;2.22;1.40;;;;;;;8.58;71.51;99061.84;10384557;28;20490;-62
2022/12/23 07:59:58;;;;;;;3.45;1.63;;;;;;;8.51;71.93;99054.50;10375262;28;20068;-63
2022/12/23 08:05:00;;;;;;;4.28;1.50;;;;;;;8.57;71.97;99043.66;10388237;28;20049;-63
2022/12/23 08:10:03;;;;;;;4.03;1.90;;;;;;;8.60;71.81;99028.69;10380871;28;20077;-63
2022/12/23 08:15:06;;;;;;;2.05;1.35;;;;;;;8.76;71.69;99041.53;10386566;28;20049;-63
2022/12/23 08:20:08;;;;;;;3.58;1.60;;;;;;;8.83;71.47;99041.00;10384808;28;20037;-63
2022/12/23 08:25:10;;;;;;;3.30;1.50;;;;;;;8.90;71.34;99036.22;10387549;28;20057;-62
2022/12/23 08:30:12;;;;;;;4.00;1.60;;;;;;;8.96;71.16;99051.47;10382418;28;20289;-62
2022/12/23 08:35:13;;;;;;;6.82;1.40;;;;;;;9.06;70.98;99044.69;10384709;28;20068;-62
2022/12/23 08:40:15;;;;;;;3.47;1.50;;;;;;;9.17;70.98;99044.81;10382803;28;20159;-61
2022/12/23 08:45:17;;;;;;;7.57;1.70;;;;;;;9.24;70.75;99051.25;10384948;28;20053;-62
2022/12/23 08:50:19;;;;;;;6.93;1.67;;;;;;;9.35;70.55;99040.94;10385225;28;20684;-63
2022/12/23 08:55:20;;;;;;;6.55;3.55;;;;;;;9.36;70.32;99033.97;10384247;28;20494;-62
2022/12/23 09:00:22;;;;;;;7.22;3.20;;;;;;;9.39;70.23;99029.34;10382187;28;20070;-63
2022/12/23 09:05:24;;;;;;;6.40;2.08;;;;;;;9.36;70.06;99044.41;10387490;28;21082;-62
2022/12/23 09:10:26;;;;;;;4.72;2.45;;;;;;;9.43;70.28;99040.41;10382337;28;20417;-63
2022/12/23 09:15:28;;;;;;;4.40;1.55;;;;;;;9.50;69.96;99031.22;10384980;28;20059;-63
2022/12/23 09:20:30;;;;;;;4.90;1.50;;;;;;;9.54;70.07;99038.72;10382483;28;20498;-63
2022/12/23 09:25:32;;;;;;;3.58;1.40;;;;;;;9.66;69.82;99042.28;10386152;28;20495;-63
2022/12/23 09:30:34;;;;;;;3.10;1.45;;;;;;;9.74;69.77;99013.03;10383275;28;20085;-61
2022/12/23 09:35:35;;;;;;;3.72;1.38;;;;;;;9.79;69.58;99032.63;10384288;28;20053;-61
2022/12/23 09:40:39;;;;;;;4.60;1.40;;;;;;;9.94;69.23;99028.97;10380964;28;20053;-61
2022/12/23 09:46:15;;;;;;;4.57;1.40;;;;;;;9.95;69.08;99033.22;10387034;28;20433;-61
2022/12/23 09:51:22;;;;;;;4.20;1.58;;;;;;;10.04;69.23;99036.97;10383302;28;20057;-61
2022/12/23 09:56:33;;;;;;;6.05;2.72;;;;;;;10.05;69.28;99020.34;10385553;28;20076;-61
2022/12/23 10:02:10;;;;;;;5.10;2.78;;;;;;;9.96;68.88;99011.41;10380215;28;20140;-61
2022/12/23 10:07:36;;;;;;;8.27;3.08;;;;;;;10.00;69.17;99005.00;10382542;28;20048;-61
2022/12/23 10:12:41;;;;;;;4.03;2.03;;;;;;;10.04;69.41;99003.84;10385878;28;20052;-61
2022/12/23 10:17:45;;;;;;;4.63;1.63;;;;;;;9.97;69.08;99004.41;10385047;28;20045;-62
2022/12/23 10:22:46;;;;;;;5.55;1.70;;;;;;;10.00;69.26;98998.94;10383872;28;20052;-61
2022/12/23 10:27:48;;;;;;;5.60;1.50;;;;;;;10.05;68.98;99007.28;10417202;28;20057;-61
2022/12/23 10:33:22;;;;;;;4.63;1.60;;;;;;;10.05;69.08;98982.00;10376750;28;20045;-61
2022/12/23 10:38:27;;;;;;;5.05;1.65;;;;;;;10.08;69.11;98973.09;10379608;28;20665;-61
2022/12/23 10:44:27;;;;;;;3.30;1.40;;;;;;;9.99;69.12;98950.28;10382999;28;20346;-61
2022/12/23 10:49:42;;;;;;;3.65;1.50;;;;;;;10.14;69.03;98943.91;10357180;28;20073;-61
2022/12/23 10:54:46;;;;;;;3.22;1.40;;;;;;;10.15;68.96;98930.75;10382454;28;20172;-61
2022/12/23 10:59:48;;;;;;;4.80;1.75;;;;;;;10.17;68.93;98931.47;10383699;28;20482;-61
2022/12/23 11:04:50;;;;;;;4.10;1.58;;;;;;;10.15;68.93;98928.16;10384288;28;20497;-61
2022/12/23 11:10:01;;;;;;;3.58;1.65;;;;;;;10.02;68.96;98903.84;10381198;28;20378;-61
2022/12/23 11:15:03;;;;;;;4.40;1.98;;;;;;;9.87;69.60;98888.50;10382269;28;20413;-60
2022/12/23 11:20:11;;;;;;;6.03;2.28;;;;;;;9.88;69.78;98900.59;10384393;28;20233;-62
2022/12/23 11:25:27;;;;;;;4.35;2.38;;;;;;;10.04;69.59;98888.06;10385115;28;20057;-60
2022/12/23 11:30:34;;;;;;;5.95;2.00;;;;;;;10.18;69.59;98874.81;10379469;28;20127;-61
2022/12/23 11:35:36;;;;;;;7.57;2.10;;;;;;;10.22;69.35;98857.94;10382713;28;20041;-60
2022/12/23 11:40:38;;;;;;;3.92;1.90;;;;;;;10.23;69.14;98843.94;10382574;28;20124;-61
2022/12/23 11:45:40;;;;;;;6.70;2.38;;;;;;;10.22;69.41;98831.81;10382675;28;20054;-61
2022/12/23 11:50:41;;;;;;;6.10;3.00;;;;;;;10.24;69.50;98819.47;10383734;28;20132;-60
2022/12/23 11:56:07;;;;;;;5.40;2.85;;;;;;;10.30;69.50;98825.06;10376609;28;20050;-61
2022/12/23 12:01:16;;;;;;;15.00;7.32;;;;;;;10.23;69.65;98817.81;10376869;28;20080;-61
2022/12/23 12:06:19;;;;;;;15.32;8.93;;;;;;;10.11;69.76;98818.75;10382471;28;20049;-61
2022/12/23 12:11:26;;;;;;;9.30;6.30;;;;;;;10.12;70.07;98812.56;10375664;28;20057;-61
2022/12/23 12:17:15;;;;;;;8.43;5.13;;;;;;;9.89;70.42;98811.66;10372675;28;20041;-61
2022/12/23 12:22:32;;;;;;;16.33;8.48;;;;;;;9.84;70.67;98807.75;10363160;28;20060;-60
2022/12/23 12:27:38;;;;;;;13.77;8.75;;;;;;;9.99;70.57;98790.94;10364745;28;20111;-61
2022/12/23 12:33:10;;;;;;;9.63;5.18;;;;;;;10.00;70.55;98758.63;10371753;28;20076;-60
2022/12/23 12:38:28;;;;;;;14.05;8.63;;;;;;;9.89;70.93;98743.78;10379559;28;20050;-60
2022/12/23 12:43:34;;;;;;;31.80;14.05;;;;;;;9.81;71.11;98734.88;10370834;28;20057;-60
2022/12/23 12:48:53;;;;;;;14.73;10.63;;;;;;;9.54;71.88;98725.50;10384998;28;20053;-60
2022/12/23 12:54:00;;;;;;;13.75;9.20;;;;;;;9.55;72.05;98724.56;10386014;28;20485;-60
2022/12/23 12:59:23;;;;;;;20.13;14.10;;;;;;;9.62;71.79;98714.50;10388916;28;20042;-60
2022/12/23 13:05:05;;;;;;;26.17;16.63;;;;;;;9.47;72.29;98697.38;10386229;28;20056;-60
2022/12/23 13:10:19;;;;;;;18.98;13.82;;;;;;;9.43;72.56;98698.53;10379170;28;20052;-60
2022/12/23 13:15:32;;;;;;;13.27;9.75;;;;;;;9.45;72.52;98674.00;10385457;28;20929;-60
2022/12/23 13:20:58;;;;;;;21.58;14.32;;;;;;;9.40;72.67;98673.50;10382148;28;20779;-61
2022/12/23 13:26:31;;;;;;;12.73;9.00;;;;;;;9.43;72.71;98669.84;10383757;28;20052;-60
2022/12/23 13:32:00;;;;;;;41.65;18.85;;;;;;;9.43;72.74;98683.72;10350645;28;21235;-60
2022/12/23 13:37:15;;;;;;;19.70;13.70;;;;;;;9.56;72.41;98650.53;10383754;28;20536;-60
2022/12/23 13:42:27;;;;;;;19.77;13.27;;;;;;;9.53;72.32;98648.16;10380828;28;20510;-60
2022/12/23 13:47:37;;;;;;;501.05;25.30;;;;;;;9.44;72.55;98632.38;10384987;28;20591;-60
2022/12/23 13:53:09;;;;;;;13.85;10.43;;;;;;;9.23;73.22;98615.72;10379060;28;20406;-60
2022/12/23 13:58:20;;;;;;;256.65;23.63;;;;;;;9.36;73.06;98601.63;10383444;28;20064;-60
2022/12/23 14:03:30;;;;;;;705.03;49.17;;;;;;;9.51;72.50;98587.44;10383581;28;20069;-60
2022/12/23 14:08:41;;;;;;;468.58;44.30;;;;;;;9.50;72.57;98580.53;10385228;28;20045;-60
2022/12/23 14:13:45;;;;;;;;;;;;;;;9.20;73.02;98580.25;10380572;28;20054;-60
2022/12/23 14:18:59;;;;;;;167.50;22.35;;;;;;;9.45;72.34;98572.25;10367465;28;19931;-60
2022/12/23 14:24:06;;;;;;;235.52;16.23;;;;;;;9.32;72.97;98562.88;10379684;28;20072;-61
2022/12/23 14:29:41;;;;;;;345.33;23.00;;;;;;;9.36;72.58;98572.94;10382189;28;20049;-61
2022/12/23 14:35:15;;;;;;;318.08;31.55;;;;;;;9.45;72.48;98569.63;10368973;28;20524;-61
2022/12/23 14:40:35;;;;;;;172.13;25.38;;;;;;;9.31;72.68;98598.56;10382895;28;20060;-60
2022/12/23 14:45:42;;;;;;;8.73;7.50;;;;;;;9.40;72.90;98576.16;10384974;28;20136;-60
2022/12/23 14:50:56;;;;;;;56.35;24.70;;;;;;;9.40;72.96;98576.16;10387211;28;20493;-60
2022/12/23 14:56:25;;;;;;;40.58;22.70;;;;;;;9.41;72.91;98577.81;10383091;28;20045;-60
2022/12/23 15:01:52;;;;;;;26.25;17.45;;;;;;;9.46;72.80;98549.59;10384124;28;20103;-60
2022/12/23 15:07:15;;;;;;;20.90;15.80;;;;;;;9.55;72.64;98548.88;10381511;28;20402;-60
2022/12/23 15:12:34;;;;;;;9.65;8.27;;;;;;;9.67;72.29;98539.31;10384291;28;20399;-60
2022/12/23 15:17:36;;;;;;;18.30;11.93;;;;;;;9.71;71.87;98530.28;10382450;28;20136;-60
2022/12/23 15:22:40;;;;;;;22.65;14.18;;;;;;;9.76;72.08;98530.72;10383984;28;20053;-60
2022/12/23 15:27:42;;;;;;;19.05;14.40;;;;;;;9.81;71.73;98531.22;10382170;28;20045;-60
2022/12/23 15:32:46;;;;;;;33.95;19.48;;;;;;;9.89;71.59;98521.00;10383482;28;20128;-60
2022/12/23 15:37:50;;;;;;;994.72;40.95;;;;;;;9.86;71.43;98509.00;10383368;28;20050;-60
2022/12/23 15:42:52;;;;;;;422.73;22.95;;;;;;;9.81;71.60;98507.72;10381939;28;20053;-60
2022/12/23 15:47:54;;;;;;;501.52;34.20;;;;;;;9.77;71.54;98516.75;10381820;28;20077;-59
2022/12/23 15:53:04;;;;;;;36.35;14.88;;;;;;;9.73;71.70;98521.34;10383494;28;20053;-60
2022/12/23 15:58:06;;;;;;;23.23;15.43;;;;;;;9.78;71.63;98523.63;10382051;28;20520;-60
2022/12/23 16:03:25;;;;;;;15.13;12.20;;;;;;;9.80;71.57;98526.94;10383374;28;20061;-61
2022/12/23 16:08:28;;;;;;;16.60;13.55;;;;;;;9.88;71.57;98533.22;10383049;28;20046;-62
2022/12/23 16:13:31;;;;;;;16.83;12.82;;;;;;;9.77;72.17;98516.75;10381562;28;20213;-61
2022/12/23 16:18:40;;;;;;;5.35;4.13;;;;;;;9.91;73.07;98522.50;10383306;28;20056;-61
2022/12/23 16:23:51;;;;;;;5.30;4.05;;;;;;;9.99;73.25;98527.97;10380416;28;20484;-62
2022/12/23 16:28:59;;;;;;;3.85;2.42;;;;;;;10.02;74.21;98537.34;10387138;28;20053;-62
2022/12/23 16:34:05;;;;;;;4.97;3.55;;;;;;;10.12;74.14;98543.50;10385056;28;20143;-62
2022/12/23 16:39:17;;;;;;;4.57;3.30;;;;;;;10.09;74.94;98534.13;10382154;28;20132;-62
2022/12/23 16:44:19;;;;;;;4.55;2.00;;;;;;;10.36;74.37;98544.97;10375726;28;20053;-62
2022/12/23 16:49:22;;;;;;;4.63;2.40;;;;;;;10.59;74.07;98543.09;10384414;28;20045;-62
2022/12/23 16:54:33;;;;;;;3.40;2.15;;;;;;;10.60;74.06;98542.16;10388170;28;20177;-62
2022/12/23 16:59:36;;;;;;;6.35;4.57;;;;;;;10.68;73.91;98552.00;10387164;28;20583;-61
2022/12/23 17:04:37;;;;;;;3.25;2.10;;;;;;;10.64;74.01;98554.03;10389167;28;20822;-62
2022/12/23 17:09:39;;;;;;;2.55;1.63;;;;;;;10.56;74.27;98559.06;10389441;28;20116;-62
2022/12/23 17:14:41;;;;;;;3.92;1.60;;;;;;;10.50;74.60;98564.78;10388724;28;20058;-63
2022/12/23 17:19:42;;;;;;;4.85;2.25;;;;;;;10.54;74.54;98581.88;10389880;28;20053;-63
2022/12/23 17:24:44;;;;;;;3.33;1.60;;;;;;;10.67;74.66;98590.38;10381934;28;20457;-63
2022/12/23 17:29:46;;;;;;;3.55;1.70;;;;;;;10.68;74.83;98599.91;10386834;28;20216;-63
2022/12/23 17:34:48;;;;;;;4.28;3.30;;;;;;;10.73;74.98;98607.34;10380454;28;20053;-63
2022/12/23 17:39:50;;;;;;;4.25;3.00;;;;;;;10.73;74.55;98616.03;10385829;28;20045;-63
2022/12/23 17:44:52;;;;;;;4.47;2.78;;;;;;;10.79;74.78;98617.28;10383547;28;20068;-63
2022/12/23 17:49:54;;;;;;;8.25;4.22;;;;;;;10.76;74.51;98628.88;10386198;28;20055;-63
2022/12/23 17:54:56;;;;;;;3.90;1.60;;;;;;;10.76;73.67;98636.72;10384924;28;20045;-63
2022/12/23 17:59:57;;;;;;;3.42;1.67;;;;;;;10.87;72.84;98636.66;10386713;28;20049;-63
2022/12/23 18:05:00;;;;;;;6.35;2.53;;;;;;;10.84;72.04;98647.38;10383487;28;20046;-63
2022/12/23 18:10:02;;;;;;;6.53;2.10;;;;;;;10.83;71.58;98656.16;10384642;28;20049;-64
2022/12/23 18:15:06;;;;;;;6.60;1.95;;;;;;;10.84;70.36;98665.69;10374022;28;20959;-63
2022/12/23 18:20:14;;;;;;;6.70;1.98;;;;;;;10.82;69.35;98672.00;10380456;28;20536;-63
2022/12/23 18:25:18;;;;;;;;;;;;;;;10.37;68.23;98659.03;10384612;28;20049;-63
2022/12/23 18:30:20;;;;;;;8.95;2.15;;;;;;;10.62;69.04;98684.06;10386494;28;20324;-63
2022/12/23 18:35:31;;;;;;;7.35;1.80;;;;;;;10.54;67.72;98707.34;10379372;28;20045;-63
2022/12/23 18:40:33;;;;;;;10.10;1.98;;;;;;;10.51;67.94;98718.03;10384545;28;20754;-63
2022/12/23 18:45:40;;;;;;;8.98;2.40;;;;;;;10.51;66.80;98715.44;10382484;28;20099;-62
2022/12/23 18:50:45;;;;;;;10.80;2.55;;;;;;;10.52;67.13;98724.09;10384261;28;20508;-63
2022/12/23 18:55:47;;;;;;;8.57;2.30;;;;;;;10.49;67.03;98726.00;10381649;28;20137;-63
2022/12/23 19:00:51;;;;;;;11.80;2.20;;;;;;;10.50;66.63;98735.50;10380198;28;20048;-63
2022/12/23 19:05:54;;;;;;;9.80;2.60;;;;;;;10.56;66.13;98742.06;10377776;28;20056;-63
2022/12/23 19:10:56;;;;;;;10.88;2.90;;;;;;;10.59;65.80;98749.63;10382954;28;20342;-63
2022/12/23 19:15:58;;;;;;;10.93;2.75;;;;;;;10.69;65.22;98760.19;10379420;28;20104;-63
2022/12/23 19:21:03;;;;;;;9.35;2.60;;;;;;;10.84;64.56;98761.63;10382066;28;20053;-63
2022/12/23 19:26:05;;;;;;;10.82;2.30;;;;;;;10.86;64.56;98764.94;10379263;28;20660;-63
2022/12/23 19:31:08;;;;;;;13.65;2.63;;;;;;;10.96;64.50;98756.25;10381797;28;20614;-63
2022/12/23 19:36:15;;;;;;;11.18;2.85;;;;;;;10.85;65.10;98744.94;10377308;28;20068;-62
2022/12/23 19:41:17;;;;;;;10.90;2.53;;;;;;;10.67;65.14;98755.09;10381359;28;20570;-63
2022/12/23 19:46:19;;;;;;;11.02;2.60;;;;;;;10.56;65.48;98741.22;10375282;28;20461;-63
2022/12/23 19:51:21;;;;;;;13.48;5.20;;;;;;;10.49;65.86;98757.38;10383252;28;20089;-63
2022/12/23 19:56:23;;;;;;;11.95;2.78;;;;;;;10.34;65.88;98753.31;10380050;28;20041;-63
2022/12/23 20:01:26;;;;;;;12.80;2.85;;;;;;;10.34;66.37;98768.16;10389488;28;20058;-63
2022/12/23 20:06:37;;;;;;;15.48;2.88;;;;;;;10.37;66.47;98788.84;10389691;28;20532;-64
2022/12/23 20:11:42;;;;;;;10.93;2.55;;;;;;;10.45;66.16;98787.31;10389371;28;20405;-64
2022/12/23 20:16:44;;;;;;;13.50;3.28;;;;;;;10.54;66.01;98811.94;10389999;28;20056;-64
2022/12/23 20:21:46;;;;;;;20.50;4.10;;;;;;;10.53;65.80;98815.47;10391482;28;20045;-63
2022/12/23 20:26:48;;;;;;;12.43;3.83;;;;;;;10.53;65.70;98815.47;10388350;28;20057;-63
2022/12/23 20:31:49;;;;;;;14.13;2.97;;;;;;;10.55;64.99;98824.03;10390649;28;20493;-62
2022/12/23 20:36:51;;;;;;;15.43;3.15;;;;;;;10.50;65.41;98827.00;10390650;28;20445;-63
2022/12/23 20:41:53;;;;;;;17.73;3.00;;;;;;;10.52;64.90;98860.03;10389972;28;20132;-63
2022/12/23 20:46:54;;;;;;;13.57;3.08;;;;;;;10.41;64.53;98856.47;10389475;28;20060;-63
2022/12/23 20:51:56;;;;;;;17.40;3.30;;;;;;;10.54;64.49;98847.69;10389167;28;20448;-63
2022/12/23 20:56:58;;;;;;;14.55;2.95;;;;;;;10.50;64.09;98852.31;10385622;28;20057;-63
2022/12/23 21:02:00;;;;;;;13.23;2.90;;;;;;;10.44;64.08;98863.22;10389429;28;20107;-63
2022/12/23 21:07:01;;;;;;;16.33;2.92;;;;;;;10.28;63.37;98874.00;10387990;28;20054;-63
2022/12/23 21:12:03;;;;;;;17.58;3.30;;;;;;;10.26;63.19;98890.75;10387261;28;20048;-63
2022/12/23 21:17:05;;;;;;;12.88;2.67;;;;;;;10.17;62.81;98904.50;10390157;28;20056;-63
2022/12/23 21:22:07;;;;;;;11.77;2.75;;;;;;;10.11;62.09;98903.19;10388047;28;20410;-63
2022/12/23 21:27:09;;;;;;;15.38;2.95;;;;;;;10.12;61.57;98912.69;10387679;28;20057;-62
2022/12/23 21:32:10;;;;;;;16.58;4.07;;;;;;;10.10;61.19;98914.56;10387764;28;20071;-62
2022/12/23 21:37:12;;;;;;;14.98;3.85;;;;;;;10.09;61.56;98922.53;10385287;28;21512;-62
2022/12/23 21:42:14;;;;;;;19.67;4.53;;;;;;;10.03;61.45;98909.91;10386769;28;20056;-62
2022/12/23 21:47:15;;;;;;;17.77;4.47;;;;;;;9.90;61.13;98917.81;10387239;28;20045;-63
2022/12/23 21:52:17;;;;;;;16.80;4.38;;;;;;;9.85;61.65;98938.19;10385827;28;20100;-63
2022/12/23 21:57:19;;;;;;;16.42;4.50;;;;;;;9.98;61.25;98945.97;10384814;28;20468;-63
2022/12/23 22:02:21;;;;;;;13.82;2.83;;;;;;;9.97;61.14;98946.94;10386793;28;20053;-63
2022/12/23 22:07:22;;;;;;;16.75;3.40;;;;;;;9.93;61.01;98955.94;10385537;28;20140;-63
2022/12/23 22:12:24;;;;;;;16.92;3.95;;;;;;;9.99;60.88;98958.91;10384955;28;20056;-63
2022/12/23 22:17:27;;;;;;;16.88;3.60;;;;;;;10.05;60.93;98960.28;10388880;28;20512;-63
2022/12/23 22:22:29;;;;;;;16.33;4.03;;;;;;;10.02;60.39;98970.94;10384779;28;20121;-62
2022/12/23 22:27:30;;;;;;;14.50;3.50;;;;;;;10.23;60.24;98974.59;10385591;28;20053;-62
2022/12/23 22:32:32;;;;;;;16.50;4.13;;;;;;;10.13;59.88;98978.84;10386227;28;20936;-62
2022/12/23 22:37:41;;;;;;;17.00;4.55;;;;;;;10.21;59.09;98998.25;10386617;28;20037;-62
2022/12/23 22:42:42;;;;;;;14.30;3.75;;;;;;;10.29;57.89;98995.06;10383533;28;20045;-62
2022/12/23 22:47:44;;;;;;;11.55;3.08;;;;;;;10.20;57.68;98998.31;10384964;28;20494;-62
2022/12/23 22:52:46;;;;;;;14.20;3.50;;;;;;;10.11;56.79;99025.13;10384629;28;20045;-62
2022/12/23 22:57:47;;;;;;;12.38;3.45;;;;;;;10.21;57.03;99037.44;10383606;28;20060;-62
2022/12/23 23:02:49;;;;;;;16.95;3.28;;;;;;;10.22;57.33;99035.63;10385398;28;20049;-62
2022/12/23 23:07:50;;;;;;;14.18;3.00;;;;;;;10.26;57.24;99058.81;10385686;28;20327;-62
2022/12/23 23:12:52;;;;;;;13.57;2.67;;;;;;;10.23;56.94;99047.75;10383209;28;20045;-62
2022/12/23 23:17:55;;;;;;;10.68;2.67;;;;;;;10.21;57.39;99070.56;10383553;28;20476;-62
2022/12/23 23:22:56;;;;;;;16.25;3.60;;;;;;;10.12;57.38;99065.97;10382488;28;20049;-62
2022/12/23 23:27:58;;;;;;;14.13;3.45;;;;;;;10.13;57.21;99083.34;10375838;28;20049;-62
2022/12/23 23:32:59;;;;;;;13.90;2.88;;;;;;;10.28;57.01;99096.13;10382290;28;20045;-62
2022/12/23 23:38:02;;;;;;;11.98;2.72;;;;;;;10.33;56.76;99095.81;10376762;28;20045;-62
2022/12/23 23:43:04;;;;;;;14.38;3.22;;;;;;;10.29;56.70;99102.22;10377375;28;20056;-62
2022/12/23 23:48:05;;;;;;;13.90;3.25;;;;;;;10.36;57.01;99111.25;10378819;28;20053;-62
2022/12/23 23:53:10;;;;;;;14.93;2.85;;;;;;;10.33;57.10;99103.66;10378862;28;20052;-63
2022/12/23 23:58:12;;;;;;;17.83;3.38;;;;;;;10.32;57.80;99104.59;10378439;28;20519;-62
